Time;durP1;ratioP1;P1;durP2;ratioP2;P2;SDS_P1;SDS_P2;PMS_P1;PMS_P2;Temp;Humidity;BMP_temperature;BMP_pressure;BME280_temperature;BME280_humidity;BME280_pressure;Samples;Min_cycle;Max_cycle;Signal;HPM_P1;HPM_P2
2023/08/17 00:01:47;;;;;;;6.85;3.35;;;;;;;;;;4989105;28;20068;-68
2023/08/17 00:04:13;;;;;;;8.27;2.90;;;15.40;99.90;;;;;;5009167;28;20095;-69
2023/08/17 00:06:39;;;;;;;8.05;2.72;;;;;;;;;;5026557;28;20068;-68
2023/08/17 00:09:04;;;;;;;5.50;2.72;;;15.70;99.90;;;;;;5030933;28;20046;-68
2023/08/17 00:11:30;;;;;;;5.65;3.13;;;;;;;;;;5005878;28;20050;-69
2023/08/17 00:13:56;;;;;;;5.25;2.45;;;;;;;;;;5007613;28;20041;-69
2023/08/17 00:16:23;;;;;;;4.20;2.70;;;;;;;;;;5020382;28;20411;-69
2023/08/17 00:18:49;;;;;;;4.57;2.47;;;;;;;;;;5004016;28;20052;-69
2023/08/17 00:21:15;;;;;;;6.20;2.35;;;15.80;99.90;;;;;;5017874;28;20034;-69
2023/08/17 00:23:41;;;;;;;3.35;2.20;;;;;;;;;;5003732;28;20055;-68
2023/08/17 00:26:07;;;;;;;5.07;2.47;;;;;;;;;;5019079;28;20511;-69
2023/08/17 00:28:33;;;;;;;8.65;2.28;;;;;;;;;;5017848;28;20041;-68
2023/08/17 00:30:59;;;;;;;5.38;2.20;;;15.80;99.90;;;;;;4998443;28;20128;-69
2023/08/17 00:33:25;;;;;;;5.53;2.25;;;15.80;99.90;;;;;;5018843;28;20116;-68
2023/08/17 00:35:51;;;;;;;9.88;1.90;;;;;;;;;;5001022;28;20098;-68
2023/08/17 00:38:17;;;;;;;3.65;1.90;;;;;;;;;;5003584;28;20124;-68
2023/08/17 00:40:43;;;;;;;4.90;2.10;;;;;;;;;;5018148;28;20037;-68
2023/08/17 00:43:09;;;;;;;6.82;1.95;;;;;;;;;;5021338;28;20049;-70
2023/08/17 00:45:35;;;;;;;6.50;1.88;;;16.00;99.90;;;;;;5033231;28;20036;-69
2023/08/17 00:48:01;;;;;;;7.10;2.28;;;;;;;;;;5034706;28;20091;-69
2023/08/17 00:50:28;;;;;;;5.40;2.20;;;16.10;99.90;;;;;;5013127;28;20042;-68
2023/08/17 00:52:55;;;;;;;5.13;2.00;;;15.70;99.90;;;;;;4998762;28;20073;-68
2023/08/17 00:55:21;;;;;;;4.47;1.92;;;;;;;;;;5029347;28;20464;-68
2023/08/17 00:57:48;;;;;;;5.95;1.70;;;;;;;;;;5028025;28;20049;-68
2023/08/17 01:00:14;;;;;;;6.93;2.58;;;;;;;;;;5015352;28;20132;-68
2023/08/17 01:02:44;;;;;;;6.28;1.90;;;15.90;99.90;;;;;;5016605;28;20080;-68
2023/08/17 01:05:10;;;;;;;5.13;1.85;;;;;;;;;;5029045;28;20077;-68
2023/08/17 01:07:37;;;;;;;3.63;1.98;;;15.90;99.90;;;;;;5022924;28;20088;-69
2023/08/17 01:10:03;;;;;;;6.47;2.28;;;;;;;;;;5041451;28;20037;-68
2023/08/17 01:12:41;;;;;;;3.97;2.00;;;15.90;99.90;;;;;;5028535;28;20132;-69
2023/08/17 01:15:24;;;;;;;3.53;1.75;;;15.90;99.90;;;;;;5021592;28;20045;-69
2023/08/17 01:18:00;;;;;;;6.72;2.53;;;15.90;99.90;;;;;;5011417;28;20143;-69
2023/08/17 01:20:26;;;;;;;3.75;1.88;;;15.80;99.90;;;;;;5019924;28;20522;-69
2023/08/17 01:22:56;;;;;;;5.55;2.08;;;15.80;99.90;;;;;;4997315;28;20041;-68
2023/08/17 01:25:22;;;;;;;3.97;1.95;;;15.70;99.90;;;;;;5017451;28;20049;-69
2023/08/17 01:27:49;;;;;;;6.10;1.80;;;;;;;;;;5019333;28;20045;-68
2023/08/17 01:30:18;;;;;;;6.72;1.95;;;15.80;99.90;;;;;;5017087;28;20098;-69
2023/08/17 01:33:08;;;;;;;5.97;1.85;;;15.50;99.90;;;;;;5021029;28;20515;-68
2023/08/17 01:35:57;;;;;;;5.03;1.90;;;15.40;99.90;;;;;;4984375;28;20038;-69
2023/08/17 01:38:23;;;;;;;4.28;1.80;;;15.40;99.90;;;;;;4992376;28;20695;-68
2023/08/17 01:40:51;;;;;;;5.38;1.80;;;15.60;99.90;;;;;;5017019;28;20061;-69
2023/08/17 01:43:18;;;;;;;6.13;2.15;;;15.40;99.90;;;;;;4993218;28;20088;-69
2023/08/17 01:45:44;;;;;;;8.65;1.73;;;;;;;;;;5004970;28;20543;-68
2023/08/17 01:48:10;;;;;;;4.05;1.90;;;;;;;;;;5003341;28;20133;-68
2023/08/17 01:50:36;;;;;;;4.50;1.77;;;;;;;;;;5011794;28;20044;-69
2023/08/17 01:53:01;;;;;;;5.78;2.05;;;15.30;99.90;;;;;;5019180;28;20053;-69
2023/08/17 01:55:27;;;;;;;6.63;1.90;;;;;;;;;;5009243;28;20037;-68
2023/08/17 01:57:53;;;;;;;4.95;2.20;;;;;;;;;;5012480;28;20407;-68
2023/08/17 02:00:19;;;;;;;4.00;1.83;;;;;;;;;;4985546;28;20045;-69
2023/08/17 02:02:45;;;;;;;7.70;2.67;;;15.10;99.90;;;;;;5019776;28;20095;-69
2023/08/17 02:05:11;;;;;;;8.02;1.85;;;;;;;;;;5014492;28;20046;-68
2023/08/17 02:07:37;;;;;;;4.75;1.55;;;;;;;;;;5023480;28;20085;-69
2023/08/17 02:10:03;;;;;;;4.82;1.83;;;15.10;99.90;;;;;;5024724;28;20526;-68
2023/08/17 02:12:28;;;;;;;7.50;2.05;;;15.10;99.90;;;;;;5027963;28;20045;-68
2023/08/17 02:14:54;;;;;;;5.35;2.47;;;;;;;;;;5022053;28;20104;-68
2023/08/17 02:17:22;;;;;;;5.82;2.05;;;;;;;;;;5026902;28;20034;-68
2023/08/17 02:19:48;;;;;;;3.47;1.67;;;14.80;99.90;;;;;;5019927;28;20045;-68
2023/08/17 02:22:14;;;;;;;6.07;2.28;;;;;;;;;;5003023;28;20052;-68
2023/08/17 02:24:40;;;;;;;7.53;2.00;;;;;;;;;;5008364;28;20060;-68
2023/08/17 02:27:07;;;;;;;3.78;1.95;;;14.90;99.90;;;;;;5023857;28;20048;-69
2023/08/17 02:29:32;;;;;;;5.05;1.92;;;15.00;99.90;;;;;;4997367;28;20041;-68
2023/08/17 02:31:58;;;;;;;4.75;2.20;;;;;;;;;;5026269;28;20033;-68
2023/08/17 02:34:24;;;;;;;4.25;2.65;;;;;;;;;;5026273;28;20092;-68
2023/08/17 02:36:50;;;;;;;6.28;2.05;;;;;;;;;;5027185;28;20041;-69
2023/08/17 02:39:16;;;;;;;4.68;2.13;;;14.60;99.90;;;;;;4991681;28;20061;-68
2023/08/17 02:41:42;;;;;;;5.68;2.15;;;;;;;;;;5019060;28;20682;-69
2023/08/17 02:44:07;;;;;;;3.78;2.05;;;;;;;;;;5023492;28;20144;-69
2023/08/17 02:46:33;;;;;;;3.20;1.98;;;14.60;99.90;;;;;;5032114;28;20055;-68
2023/08/17 02:48:59;;;;;;;4.18;2.08;;;;;;;;;;5044117;28;20032;-68
2023/08/17 02:51:25;;;;;;;4.30;1.98;;;;;;;;;;5039152;28;20037;-69
2023/08/17 02:53:51;;;;;;;6.32;2.58;;;;;;;;;;5040499;28;20076;-69
2023/08/17 02:56:17;;;;;;;7.75;3.28;;;;;;;;;;5034794;28;20041;-68
2023/08/17 02:58:43;;;;;;;3.45;2.35;;;;;;;;;;5016602;28;20049;-68
2023/08/17 03:01:09;;;;;;;5.15;2.30;;;14.60;99.90;;;;;;5041601;28;20051;-68
2023/08/17 03:03:34;;;;;;;6.93;3.17;;;14.40;99.90;;;;;;5016034;28;20045;-68
2023/08/17 03:06:02;;;;;;;3.50;2.35;;;14.70;99.90;;;;;;5020280;28;20057;-68
2023/08/17 03:08:27;;;;;;;5.65;2.92;;;14.70;99.90;;;;;;5022938;28;20559;-69
2023/08/17 03:10:53;;;;;;;6.10;2.47;;;14.70;99.90;;;;;;5043954;28;20051;-68
2023/08/17 03:13:19;;;;;;;4.50;2.28;;;;;;;;;;5020130;28;20049;-69
2023/08/17 03:15:45;;;;;;;6.85;2.70;;;;;;;;;;5029803;28;20100;-68
2023/08/17 03:18:11;;;;;;;6.00;2.67;;;;;;;;;;5018640;28;20044;-68
2023/08/17 03:20:37;;;;;;;4.53;2.42;;;;;;;;;;5024562;28;20049;-69
2023/08/17 03:23:06;;;;;;;7.13;2.95;;;14.80;99.90;;;;;;5022799;28;20045;-68
2023/08/17 03:25:32;;;;;;;4.95;2.28;;;;;;;;;;5022488;28;21929;-68
2023/08/17 03:27:57;;;;;;;4.95;2.70;;;;;;;;;;5021576;28;20042;-68
2023/08/17 03:30:23;;;;;;;7.55;2.83;;;14.70;99.90;;;;;;5028017;28;20316;-68
2023/08/17 03:32:49;;;;;;;6.05;3.28;;;;;;;;;;5005755;28;20131;-69
2023/08/17 03:35:15;;;;;;;7.97;2.97;;;;;;;;;;5021086;28;20088;-69
2023/08/17 03:37:41;;;;;;;7.78;2.92;;;;;;;;;;5022278;28;20539;-68
2023/08/17 03:40:07;;;;;;;8.45;2.90;;;14.70;99.90;;;;;;4996426;28;20057;-69
2023/08/17 03:42:33;;;;;;;9.05;2.75;;;;;;;;;;5019495;28;20055;-69
2023/08/17 03:44:58;;;;;;;6.35;2.97;;;14.50;99.90;;;;;;5006180;28;20054;-68
2023/08/17 03:47:24;;;;;;;6.93;2.83;;;;;;;;;;5019072;28;20123;-69
2023/08/17 03:49:51;;;;;;;6.05;2.70;;;14.50;99.90;;;;;;5023370;28;20120;-68
2023/08/17 03:52:17;;;;;;;4.82;2.42;;;14.50;99.90;;;;;;5022241;28;20045;-69
2023/08/17 03:54:43;;;;;;;3.65;2.58;;;;;;;;;;5012772;28;20064;-68
2023/08/17 03:57:08;;;;;;;5.53;3.17;;;14.60;99.90;;;;;;5022781;28;20060;-68
2023/08/17 03:59:34;;;;;;;6.68;2.60;;;;;;;;;;5024416;28;20053;-69
2023/08/17 04:02:00;;;;;;;9.60;2.88;;;;;;;;;;5022605;28;20041;-68
2023/08/17 04:04:27;;;;;;;7.32;3.10;;;;;;;;;;5019752;28;20044;-68
2023/08/17 04:06:53;;;;;;;5.50;2.80;;;;;;;;;;5020722;28;20085;-68
2023/08/17 04:09:18;;;;;;;6.82;3.28;;;14.50;99.90;;;;;;5000305;28;20104;-68
2023/08/17 04:11:44;;;;;;;5.68;3.17;;;14.60;99.90;;;;;;5019480;28;20046;-68
2023/08/17 04:14:10;;;;;;;3.88;2.60;;;14.60;99.90;;;;;;4998593;28;20088;-68
2023/08/17 04:16:36;;;;;;;7.43;3.60;;;;;;;;;;5024578;28;20064;-68
2023/08/17 04:19:02;;;;;;;7.78;3.03;;;;;;;;;;4998668;28;20495;-68
2023/08/17 04:21:28;;;;;;;6.93;3.47;;;;;;;;;;5017146;28;20044;-69
2023/08/17 04:23:54;;;;;;;4.28;2.70;;;;;;;;;;5002577;28;20096;-68
2023/08/17 04:26:20;;;;;;;7.95;3.53;;;14.70;99.90;;;;;;5018356;28;20818;-68
2023/08/17 04:28:46;;;;;;;6.00;3.00;;;;;;;;;;5005996;28;20041;-69
2023/08/17 04:31:12;;;;;;;6.53;2.72;;;;;;;;;;5018602;28;20569;-68
2023/08/17 04:33:38;;;;;;;9.23;4.38;;;;;;;;;;5018419;28;20103;-68
2023/08/17 04:36:04;;;;;;;6.57;3.10;;;14.70;99.90;;;;;;5001911;28;20041;-68
2023/08/17 04:38:30;;;;;;;8.85;2.63;;;14.80;99.90;;;;;;5019253;28;20037;-68
2023/08/17 04:40:56;;;;;;;4.63;3.17;;;14.70;99.90;;;;;;5021705;28;20116;-68
2023/08/17 04:43:22;;;;;;;6.05;3.13;;;;;;;;;;5011791;28;20158;-69
2023/08/17 04:45:48;;;;;;;8.73;3.05;;;;;;;;;;5019027;28;20042;-68
2023/08/17 04:48:14;;;;;;;8.60;3.10;;;;;;;;;;5020412;28;20102;-68
2023/08/17 04:50:40;;;;;;;8.63;3.30;;;;;;;;;;5017973;28;20100;-69
2023/08/17 04:53:06;;;;;;;6.32;2.75;;;;;;;;;;5018963;28;20034;-68
2023/08/17 04:55:32;;;;;;;8.40;2.80;;;14.70;99.90;;;;;;5019646;28;20056;-68
2023/08/17 04:57:57;;;;;;;4.63;2.38;;;14.80;99.90;;;;;;5019701;28;20092;-68
2023/08/17 05:00:27;;;;;;;7.28;3.03;;;;;;;;;;5001212;28;20049;-68
2023/08/17 05:02:54;;;;;;;7.47;3.25;;;14.90;99.90;;;;;;5002206;28;20055;-68
2023/08/17 05:05:20;;;;;;;7.07;2.67;;;14.80;99.90;;;;;;4978716;28;1019071;-68
2023/08/17 05:07:45;;;;;;;5.10;2.60;;;14.90;99.90;;;;;;5016697;28;20081;-68
2023/08/17 05:10:11;;;;;;;6.22;2.30;;;;;;;;;;4992143;28;20398;-69
2023/08/17 05:12:37;;;;;;;5.15;3.00;;;;;;;;;;4994279;28;20045;-68
2023/08/17 05:15:03;;;;;;;5.60;2.30;;;15.10;99.90;;;;;;5015246;28;20045;-68
2023/08/17 05:17:29;;;;;;;4.47;2.65;;;;;;;;;;4987186;28;20053;-68
2023/08/17 05:19:55;;;;;;;4.15;2.55;;;14.90;99.90;;;;;;5021493;28;20037;-68
2023/08/17 05:22:21;;;;;;;15.05;3.13;;;;;;;;;;5016650;28;20123;-68
2023/08/17 05:24:47;;;;;;;5.63;2.50;;;15.10;99.90;;;;;;4999149;28;20050;-68
2023/08/17 05:27:13;;;;;;;5.88;3.15;;;15.20;99.90;;;;;;5016613;28;20059;-68
2023/08/17 05:29:39;;;;;;;12.68;3.45;;;;;;;;;;5003865;28;20057;-68
2023/08/17 05:32:05;;;;;;;4.05;2.17;;;;;;;;;;4996567;28;20478;-68
2023/08/17 05:34:31;;;;;;;4.43;2.38;;;;;;;;;;5017570;28;20042;-68
2023/08/17 05:36:57;;;;;;;5.53;2.25;;;;;;;;;;5002675;28;20049;-68
2023/08/17 05:39:23;;;;;;;8.60;1.85;;;;;;;;;;5014549;28;20120;-69
2023/08/17 05:41:49;;;;;;;4.43;1.70;;;;;;;;;;5005303;28;20088;-68
2023/08/17 05:44:15;;;;;;;5.25;2.13;;;15.30;99.90;;;;;;5003711;28;20037;-68
2023/08/17 05:46:41;;;;;;;3.58;2.53;;;15.40;99.90;;;;;;5005589;28;20597;-68
2023/08/17 05:49:07;;;;;;;4.07;2.08;;;;;;;;;;5000959;28;20145;-69
2023/08/17 05:51:32;;;;;;;4.35;2.15;;;15.50;99.90;;;;;;5017801;28;20041;-68
2023/08/17 05:53:58;;;;;;;4.88;1.98;;;;;;;;;;5024531;28;20052;-69
2023/08/17 05:56:24;;;;;;;4.78;2.25;;;;;;;;;;5020176;28;20048;-68
2023/08/17 05:58:50;;;;;;;5.30;1.70;;;;;;;;;;5022365;28;20045;-68
2023/08/17 06:01:16;;;;;;;5.72;1.80;;;15.70;99.90;;;;;;5022674;28;20069;-68
2023/08/17 06:03:42;;;;;;;4.88;1.88;;;;;;;;;;5003586;28;20045;-69
2023/08/17 06:06:08;;;;;;;5.85;1.90;;;;;;;;;;5021382;28;20053;-68
2023/08/17 06:08:34;;;;;;;6.80;1.80;;;;;;;;;;5024568;28;20066;-68
2023/08/17 06:11:00;;;;;;;6.88;2.28;;;;;;;;;;5016707;28;20042;-68
2023/08/17 06:13:26;;;;;;;9.00;2.10;;;15.90;99.90;;;;;;5006563;28;20033;-68
2023/08/17 06:15:52;;;;;;;4.57;1.75;;;;;;;;;;5022869;28;20067;-68
2023/08/17 06:18:20;;;;;;;5.28;1.90;;;;;;;;;;5026326;28;20052;-69
2023/08/17 06:20:47;;;;;;;7.90;2.08;;;;;;;;;;5023835;28;21166;-68
2023/08/17 06:23:13;;;;;;;4.75;1.73;;;;;;;;;;5006728;28;20128;-69
2023/08/17 06:25:39;;;;;;;9.77;2.28;;;;;;;;;;5020514;28;20046;-68
2023/08/17 06:28:06;;;;;;;5.45;2.28;;;17.40;99.90;;;;;;5023002;28;20122;-68
2023/08/17 06:30:32;;;;;;;7.38;1.90;;;17.80;99.90;;;;;;5024448;28;20076;-68
2023/08/17 06:32:58;;;;;;;5.85;2.13;;;;;;;;;;5021504;28;20124;-68
2023/08/17 06:35:25;;;;;;;3.92;1.38;;;;;;;;;;5021834;28;20045;-69
2023/08/17 06:37:53;;;;;;;6.68;2.10;;;;;;;;;;5017387;28;20121;-68
2023/08/17 06:40:19;;;;;;;4.68;1.58;;;18.40;99.90;;;;;;5006581;28;20056;-68
2023/08/17 06:42:44;;;;;;;9.40;2.03;;;18.90;99.90;;;;;;5021446;28;20643;-69
2023/08/17 06:45:10;;;;;;;5.78;1.55;;;18.80;99.90;;;;;;5025298;28;20033;-69
2023/08/17 06:47:36;;;;;;;5.72;1.73;;;20.50;99.90;;;;;;5022949;28;20041;-69
2023/08/17 06:50:01;;;;;;;5.18;1.55;;;20.70;99.90;;;;;;5021006;28;20045;-69
2023/08/17 06:52:27;;;;;;;3.42;0.77;;;21.70;99.90;;;;;;5006880;28;20408;-69
2023/08/17 06:54:53;;;;;;;4.57;1.90;;;21.50;99.90;;;;;;5007097;28;20121;-69
2023/08/17 06:57:18;;;;;;;5.38;1.15;;;21.30;99.90;;;;;;5003986;28;20080;-69
2023/08/17 06:59:45;;;;;;;7.88;1.38;;;20.90;99.90;;;;;;5005108;28;20052;-70
2023/08/17 07:02:11;;;;;;;4.88;1.20;;;20.00;99.90;;;;;;5024249;28;20110;-69
2023/08/17 07:04:37;;;;;;;4.80;1.20;;;19.80;99.90;;;;;;5010437;28;20037;-69
2023/08/17 07:07:03;;;;;;;3.35;0.82;;;19.40;99.90;;;;;;5022695;28;20054;-69
2023/08/17 07:09:28;;;;;;;3.55;1.23;;;19.00;99.90;;;;;;5005818;28;20507;-69
2023/08/17 07:11:54;;;;;;;5.43;1.10;;;;;;;;;;5005007;28;20033;-70
2023/08/17 07:14:20;;;;;;;4.38;1.10;;;;;;;;;;5022837;28;20064;-68
2023/08/17 07:16:46;;;;;;;4.40;1.27;;;;;;;;;;5019443;28;20096;-68
2023/08/17 07:19:13;;;;;;;4.10;1.60;;;;;;;;;;5026541;28;20044;-68
2023/08/17 07:21:39;;;;;;;4.85;1.08;;;17.80;99.90;;;;;;4998198;28;20099;-68
2023/08/17 07:24:15;;;;;;;7.10;1.60;;;17.90;99.90;;;;;;5024478;28;20034;-68
2023/08/17 07:26:41;;;;;;;8.82;1.77;;;17.70;99.90;;;;;;4999526;28;20048;-68
2023/08/17 07:29:07;;;;;;;5.72;1.50;;;;;;;;;;5004932;28;20427;-68
2023/08/17 07:31:33;;;;;;;5.63;1.48;;;;;;;;;;5027943;28;20629;-68
2023/08/17 07:34:00;;;;;;;4.88;1.20;;;17.80;99.90;;;;;;5018759;28;20037;-68
2023/08/17 07:36:26;;;;;;;6.68;1.67;;;;;;;;;;5004149;28;20095;-68
2023/08/17 07:38:52;;;;;;;6.38;1.10;;;;;;;;;;5019558;28;20049;-68
2023/08/17 07:41:18;;;;;;;4.53;1.42;;;;;;;;;;5020498;28;20046;-67
2023/08/17 07:43:43;;;;;;;4.82;1.23;;;17.90;99.90;;;;;;5024093;28;20038;-68
2023/08/17 07:46:09;;;;;;;8.88;1.67;;;17.90;99.90;;;;;;5022962;28;20044;-68
2023/08/17 07:48:34;;;;;;;3.38;1.40;;;18.00;99.90;;;;;;4995577;28;20045;-67
2023/08/17 07:51:00;;;;;;;5.68;1.38;;;;;;;;;;5020477;28;20051;-67
2023/08/17 07:53:26;;;;;;;5.40;1.02;;;18.00;99.90;;;;;;5018154;28;20044;-68
2023/08/17 07:55:52;;;;;;;3.28;1.42;;;;;;;;;;5001730;28;20037;-68
2023/08/17 07:58:18;;;;;;;2.72;1.33;;;;;;;;;;5003540;28;20045;-68
2023/08/17 08:00:43;;;;;;;2.90;1.35;;;18.30;99.90;;;;;;5021596;28;20092;-68
2023/08/17 08:03:09;;;;;;;3.97;1.00;;;18.20;99.90;;;;;;5022847;28;20431;-71
2023/08/17 08:05:35;;;;;;;5.07;1.10;;;18.10;99.90;;;;;;5017580;28;20058;-68
2023/08/17 08:08:01;;;;;;;5.72;1.60;;;;;;;;;;4985600;28;20038;-68
2023/08/17 08:10:28;;;;;;;2.28;0.70;;;18.30;99.90;;;;;;4984655;28;20046;-68
2023/08/17 08:12:54;;;;;;;4.15;0.80;;;;;;;;;;5005505;28;20053;-68
2023/08/17 08:15:19;;;;;;;3.10;0.90;;;18.00;99.90;;;;;;5004437;28;20038;-68
2023/08/17 08:17:45;;;;;;;2.55;0.82;;;17.90;99.90;;;;;;5003332;28;20057;-68
2023/08/17 08:20:11;;;;;;;5.20;1.00;;;17.90;99.90;;;;;;4986379;28;20048;-68
2023/08/17 08:22:36;;;;;;;6.25;0.70;;;;;;;;;;5001926;28;20069;-68
2023/08/17 08:25:03;;;;;;;3.35;0.70;;;;;;;;;;5003827;28;20146;-68
2023/08/17 08:27:28;;;;;;;3.55;1.02;;;;;;;;;;4986706;28;20510;-68
2023/08/17 08:29:54;;;;;;;1.88;1.00;;;18.00;99.90;;;;;;5002094;28;20042;-68
2023/08/17 08:32:20;;;;;;;3.05;1.00;;;;;;;;;;5004412;28;20555;-68
2023/08/17 08:34:46;;;;;;;5.80;1.02;;;;;;;;;;4968381;28;20045;-67
2023/08/17 08:37:12;;;;;;;8.60;1.42;;;18.30;99.90;;;;;;4985962;28;21526;-69
2023/08/17 08:39:54;;;;;;;4.25;1.00;;;18.20;99.90;;;;;;5002920;28;20084;-68
2023/08/17 08:42:20;;;;;;;4.93;1.20;;;18.60;99.90;;;;;;4985935;28;20045;-68
2023/08/17 08:44:47;;;;;;;4.03;0.70;;;18.70;99.90;;;;;;5003316;28;20046;-68
2023/08/17 08:47:13;;;;;;;6.35;1.00;;;19.00;99.90;;;;;;4984017;28;20177;-68
2023/08/17 08:50:03;;;;;;;3.10;0.70;;;19.00;99.90;;;;;;5004414;28;20419;-68
2023/08/17 08:52:39;;;;;;;1.60;0.93;;;19.10;99.90;;;;;;4993616;28;20048;-69
2023/08/17 08:55:14;;;;;;;1.02;0.60;;;19.30;99.90;;;;;;5003138;28;20044;-69
2023/08/17 08:57:41;;;;;;;3.63;1.13;;;19.40;99.90;;;;;;5004414;28;20033;-69
2023/08/17 09:00:09;;;;;;;3.90;1.00;;;19.50;99.90;;;;;;4985393;28;20061;-69
2023/08/17 09:02:35;;;;;;;4.03;0.80;;;19.50;99.90;;;;;;5002250;28;20522;-69
2023/08/17 09:05:02;;;;;;;3.33;0.85;;;19.50;99.90;;;;;;5002527;28;20042;-69
2023/08/17 09:07:31;;;;;;;3.65;0.77;;;19.50;99.90;;;;;;4997495;28;20121;-69
2023/08/17 09:09:56;;;;;;;4.18;0.90;;;19.70;99.90;;;;;;4999238;28;20113;-69
2023/08/17 09:12:22;;;;;;;5.40;0.80;;;19.50;99.90;;;;;;4995772;28;20547;-69
2023/08/17 09:14:48;;;;;;;2.97;0.60;;;19.40;99.90;;;;;;4979175;28;20050;-68
2023/08/17 09:17:14;;;;;;;2.58;1.30;;;19.40;99.90;;;;;;4985308;28;20108;-69
2023/08/17 09:19:39;;;;;;;3.00;1.20;;;19.50;99.90;;;;;;5003663;28;21340;-68
2023/08/17 09:22:05;;;;;;;8.35;0.90;;;19.40;99.90;;;;;;4988411;28;20138;-68
2023/08/17 09:24:35;;;;;;;5.10;1.85;;;19.40;99.90;;;;;;4986573;28;20042;-68
2023/08/17 09:27:01;;;;;;;5.93;1.30;;;19.40;99.90;;;;;;5001136;28;20042;-69
2023/08/17 09:29:26;;;;;;;2.20;0.70;;;19.30;99.90;;;;;;4984989;28;20089;-68
2023/08/17 09:31:52;;;;;;;5.28;0.73;;;;;;;;;;5005713;28;20053;-68
2023/08/17 09:34:19;;;;;;;4.93;0.85;;;19.50;99.90;;;;;;5001569;28;20057;-70
2023/08/17 09:36:47;;;;;;;5.97;1.00;;;19.20;99.90;;;;;;4985344;28;20077;-68
2023/08/17 09:39:15;;;;;;;5.85;0.95;;;19.60;99.90;;;;;;4984583;28;20037;-68
2023/08/17 09:41:44;;;;;;;6.57;0.98;;;19.60;99.90;;;;;;4983932;28;20092;-68
2023/08/17 09:44:10;;;;;;;4.05;0.80;;;19.60;99.90;;;;;;5000729;28;20133;-68
2023/08/17 09:46:36;;;;;;;3.13;1.08;;;19.50;99.90;;;;;;5004843;28;20045;-69
2023/08/17 09:49:04;;;;;;;4.78;1.17;;;19.50;99.90;;;;;;5005486;28;20046;-68
2023/08/17 09:51:30;;;;;;;3.75;0.90;;;19.50;99.90;;;;;;5002256;28;20058;-68
2023/08/17 09:53:55;;;;;;;2.28;0.60;;;19.50;99.90;;;;;;4999408;28;20049;-68
2023/08/17 09:56:23;;;;;;;3.13;1.33;;;19.60;99.90;;;;;;5021269;28;20049;-68
2023/08/17 09:58:49;;;;;;;5.85;0.90;;;19.50;99.90;;;;;;5021528;28;20392;-68
2023/08/17 10:01:15;;;;;;;3.60;0.93;;;19.50;99.90;;;;;;5025277;28;20036;-68
2023/08/17 10:03:45;;;;;;;4.32;1.05;;;19.50;99.90;;;;;;4995183;28;20038;-69
2023/08/17 10:06:14;;;;;;;5.15;1.05;;;19.50;99.90;;;;;;5027867;28;20064;-68
2023/08/17 10:08:44;;;;;;;3.90;1.13;;;19.50;99.90;;;;;;5020064;28;20068;-69
2023/08/17 10:11:11;;;;;;;4.53;1.02;;;19.50;99.90;;;;;;5034422;28;20112;-68
2023/08/17 10:13:44;;;;;;;3.42;1.10;;;19.50;99.90;;;;;;5011722;28;20125;-68
2023/08/17 10:16:27;;;;;;;5.93;1.50;;;19.60;99.90;;;;;;5023068;28;20041;-69
2023/08/17 10:19:03;;;;;;;5.55;0.90;;;19.70;99.90;;;;;;5036445;28;20048;-68
2023/08/17 10:21:36;;;;;;;4.22;1.08;;;20.00;99.90;;;;;;5036029;28;20113;-68
2023/08/17 10:24:03;;;;;;;4.25;1.10;;;19.70;99.90;;;;;;5041511;28;21217;-68
2023/08/17 10:26:29;;;;;;;4.55;1.02;;;19.60;99.90;;;;;;5027024;28;20132;-68
2023/08/17 10:28:58;;;;;;;3.80;0.77;;;19.70;99.90;;;;;;5028168;28;20553;-69
2023/08/17 10:31:24;;;;;;;4.82;1.23;;;19.80;99.90;;;;;;5038517;28;20117;-68
2023/08/17 10:33:50;;;;;;;3.33;1.10;;;19.70;99.90;;;;;;5046629;28;20080;-69
2023/08/17 10:36:17;;;;;;;2.33;0.60;;;19.80;99.90;;;;;;5016038;28;20033;-69
2023/08/17 10:38:42;;;;;;;5.45;1.10;;;19.80;99.90;;;;;;5023612;28;20453;-69
2023/08/17 10:41:14;;;;;;;3.50;0.98;;;19.80;99.90;;;;;;5016440;28;20045;-68
2023/08/17 10:43:57;;;;;;;3.63;1.30;;;19.80;99.90;;;;;;5037141;28;20079;-68
2023/08/17 10:46:35;;;;;;;5.57;1.10;;;19.80;99.90;;;;;;5019207;28;20443;-68
2023/08/17 10:49:05;;;;;;;3.45;1.00;;;19.80;99.90;;;;;;5016432;28;20598;-69
2023/08/17 10:51:31;;;;;;;5.10;1.13;;;19.70;99.90;;;;;;5027364;28;20405;-68
2023/08/17 10:54:00;;;;;;;4.82;0.90;;;19.90;99.90;;;;;;5028032;28;20041;-68
2023/08/17 10:56:28;;;;;;;3.47;0.90;;;19.70;99.90;;;;;;5022846;28;20073;-69
2023/08/17 10:58:54;;;;;;;2.65;1.00;;;19.80;99.90;;;;;;5028381;28;20697;-68
2023/08/17 11:01:35;;;;;;;4.47;1.50;;;19.80;99.90;;;;;;5036247;28;20127;-68
2023/08/17 11:04:17;;;;;;;8.85;1.38;;;19.90;99.90;;;;;;5031914;28;20080;-69
2023/08/17 11:06:46;;;;;;;3.70;1.23;;;19.70;99.90;;;;;;5027871;28;20049;-69
2023/08/17 11:09:12;;;;;;;4.63;1.50;;;19.70;99.90;;;;;;5012633;28;20850;-68
2023/08/17 11:11:38;;;;;;;5.20;0.90;;;19.80;99.90;;;;;;5030640;28;20042;-68
2023/08/17 11:14:04;;;;;;;5.03;1.13;;;19.80;99.90;;;;;;5022610;28;20092;-68
2023/08/17 11:16:29;;;;;;;4.53;1.27;;;19.80;99.90;;;;;;5035151;28;20069;-68
2023/08/17 11:18:58;;;;;;;4.97;1.48;;;19.80;99.90;;;;;;5020080;28;20491;-68
2023/08/17 11:21:24;;;;;;;2.42;1.00;;;19.70;99.90;;;;;;5030313;28;20087;-69
2023/08/17 11:23:49;;;;;;;6.00;1.60;;;19.70;99.90;;;;;;5020626;28;20420;-68
2023/08/17 11:26:17;;;;;;;3.33;1.23;;;19.60;99.90;;;;;;5029165;28;20041;-69
2023/08/17 11:28:44;;;;;;;4.63;1.45;;;19.90;99.90;;;;;;5038247;28;20045;-69
2023/08/17 11:31:12;;;;;;;4.15;1.10;;;19.80;99.90;;;;;;5038027;28;20518;-68
2023/08/17 11:33:39;;;;;;;3.88;1.52;;;19.80;99.90;;;;;;5028915;28;20080;-68
2023/08/17 11:36:06;;;;;;;5.20;1.30;;;19.80;99.90;;;;;;5017335;28;20041;-68
2023/08/17 11:38:33;;;;;;;3.38;1.13;;;19.70;99.90;;;;;;5022512;28;20041;-68
2023/08/17 11:40:59;;;;;;;4.78;1.45;;;19.70;99.90;;;;;;4988726;28;20129;-68
2023/08/17 11:43:27;;;;;;;2.60;1.42;;;20.00;99.90;;;;;;5031916;28;20046;-68
2023/08/17 11:45:54;;;;;;;4.45;1.20;;;19.90;99.90;;;;;;4999774;28;20905;-68
2023/08/17 11:48:20;;;;;;;2.22;0.93;;;19.80;99.90;;;;;;5020757;28;20047;-68
2023/08/17 11:50:45;;;;;;;2.90;1.45;;;20.00;99.90;;;;;;5034386;28;20719;-69
2023/08/17 11:53:11;;;;;;;5.38;2.47;;;19.90;99.90;;;;;;5029578;28;20037;-69
2023/08/17 11:55:37;;;;;;;5.10;1.80;;;19.90;99.90;;;;;;5020788;28;20045;-69
2023/08/17 11:58:03;;;;;;;5.32;1.25;;;20.00;99.90;;;;;;5026874;28;20045;-70
2023/08/17 12:00:46;;;;;;;4.78;1.80;;;20.00;99.90;;;;;;5029525;28;20068;-68
2023/08/17 12:03:16;;;;;;;5.20;1.50;;;20.00;99.90;;;;;;5018087;28;20056;-68
2023/08/17 12:05:43;;;;;;;6.70;1.52;;;20.10;99.90;;;;;;5025084;28;20068;-69
2023/08/17 12:08:08;;;;;;;4.78;1.88;;;20.00;99.90;;;;;;5044164;28;20057;-68
2023/08/17 12:10:36;;;;;;;7.47;2.20;;;20.10;99.90;;;;;;5041214;28;20045;-68
2023/08/17 12:13:02;;;;;;;6.28;1.50;;;20.30;99.90;;;;;;5035021;28;20048;-68
2023/08/17 12:15:32;;;;;;;3.28;1.30;;;20.10;99.90;;;;;;5035402;28;20048;-69
2023/08/17 12:18:00;;;;;;;5.93;1.63;;;20.30;99.90;;;;;;5021042;28;20045;-68
2023/08/17 12:20:26;;;;;;;3.60;1.90;;;20.20;99.90;;;;;;5006168;28;20243;-68
2023/08/17 12:22:51;;;;;;;3.30;1.42;;;20.30;99.90;;;;;;5033508;28;20491;-68
2023/08/17 12:25:20;;;;;;;5.78;1.98;;;20.00;99.90;;;;;;5034201;28;20041;-68
2023/08/17 12:27:47;;;;;;;5.75;2.00;;;19.90;99.90;;;;;;5023213;28;20462;-68
2023/08/17 12:30:27;;;;;;;3.95;1.38;;;20.00;99.90;;;;;;5022830;28;20051;-68
2023/08/17 12:32:52;;;;;;;4.22;1.55;;;19.80;99.90;;;;;;5032004;28;20037;-68
2023/08/17 12:35:21;;;;;;;2.50;1.20;;;19.80;99.90;;;;;;5024378;28;20692;-68
2023/08/17 12:37:47;;;;;;;4.03;1.60;;;19.80;99.90;;;;;;5038868;28;20426;-68
2023/08/17 12:40:12;;;;;;;5.35;1.75;;;19.90;99.90;;;;;;5042119;28;20055;-68
2023/08/17 12:42:38;;;;;;;4.45;1.40;;;19.90;99.90;;;;;;5037048;28;20045;-68
2023/08/17 12:45:04;;;;;;;3.35;1.40;;;19.90;99.90;;;;;;5019337;28;20045;-69
2023/08/17 12:47:29;;;;;;;2.40;1.20;;;19.80;99.90;;;;;;5039473;28;20045;-68
2023/08/17 12:49:55;;;;;;;3.30;1.40;;;19.80;99.90;;;;;;5039807;28;20055;-68
2023/08/17 12:52:20;;;;;;;4.80;1.80;;;19.90;99.90;;;;;;5039590;28;20104;-68
2023/08/17 12:54:46;;;;;;;5.75;1.20;;;20.00;99.90;;;;;;5041812;28;20044;-68
2023/08/17 12:57:12;;;;;;;2.20;1.35;;;19.80;99.90;;;;;;5018388;28;20123;-69
2023/08/17 12:59:37;;;;;;;6.68;1.70;;;20.00;99.90;;;;;;5039266;28;20049;-68
2023/08/17 13:02:03;;;;;;;3.70;1.70;;;20.20;99.90;;;;;;5017783;28;20041;-69
2023/08/17 13:04:28;;;;;;;4.40;1.60;;;19.80;99.90;;;;;;5041620;28;20040;-68
2023/08/17 13:06:55;;;;;;;4.90;1.98;;;19.90;99.90;;;;;;5011999;28;20058;-69
2023/08/17 13:09:20;;;;;;;3.63;1.75;;;20.00;99.90;;;;;;5014069;28;20508;-69
2023/08/17 13:11:46;;;;;;;3.53;1.75;;;20.00;99.90;;;;;;5024939;28;20046;-69
2023/08/17 13:14:14;;;;;;;3.65;1.92;;;20.10;99.90;;;;;;5019369;28;20037;-69
2023/08/17 13:16:39;;;;;;;3.33;1.45;;;20.20;99.90;;;;;;5025924;28;20073;-68
2023/08/17 13:19:05;;;;;;;5.32;1.70;;;20.00;99.90;;;;;;5020197;28;20720;-68
2023/08/17 13:21:30;;;;;;;3.55;2.10;;;20.10;99.90;;;;;;5025676;28;20504;-68
2023/08/17 13:23:56;;;;;;;6.15;2.28;;;19.70;99.90;;;;;;5025363;28;20423;-69